Time;durP1;ratioP1;P1;durP2;ratioP2;P2;SDS_P1;SDS_P2;PMS_P1;PMS_P2;Temp;Humidity;BMP_temperature;BMP_pressure;BME280_temperature;BME280_humidity;BME280_pressure;Samples;Min_cycle;Max_cycle;Signal;HPM_P1;HPM_P2
2023/05/28 00:01:24;;;;;;;;;;;;;;;13.78;63.10;96610.13;5026585;28;19956;-76
2023/05/28 00:03:50;;;;;;;;;;;;;;;13.71;64.89;96607.63;5009143;28;19955;-79
2023/05/28 00:06:16;;;;;;;;;;;;;;;13.64;63.88;96608.78;5025586;28;20244;-80
2023/05/28 00:08:41;;;;;;;;;;;;;;;13.59;64.05;96599.75;5025446;28;20204;-80
2023/05/28 00:11:07;;;;;;;;;;;;;;;13.56;64.40;96602.03;5026786;28;19952;-81
2023/05/28 00:13:33;;;;;;;;;;;;;;;13.52;64.86;96606.97;5024891;28;20234;-81
2023/05/28 00:15:59;;;;;;;;;;;;;;;13.48;64.85;96594.47;5026356;28;19996;-80
2023/05/28 00:18:28;;;;;;;;;;;;;;;13.44;65.23;96593.34;5026040;28;19956;-80
2023/05/28 00:20:54;;;;;;;;;;;;;;;13.39;65.32;96584.31;5026084;28;19962;-79
2023/05/28 00:23:20;;;;;;;;;;;;;;;13.40;65.76;96593.81;5008388;28;20139;-77
2023/05/28 00:25:46;;;;;;;;;;;;;;;13.39;65.21;96592.22;5025131;28;19960;-78
2023/05/28 00:28:12;;;;;;;;;;;;;;;13.39;65.76;96589.56;5024862;28;19959;-77
2023/05/28 00:30:38;;;;;;;;;;;;;;;13.41;65.27;96586.72;5024617;28;20002;-78
2023/05/28 00:33:04;;;;;;;;;;;;;;;13.39;64.97;96584.31;5026008;28;20157;-77
2023/05/28 00:35:30;;;;;;;;;;;;;;;13.38;64.50;96572.19;5026072;28;20271;-78
2023/05/28 00:37:56;;;;;;;;;;;;;;;13.38;64.97;96584.56;5026108;28;19969;-79
2023/05/28 00:40:22;;;;;;;;;;;;;;;13.35;65.00;96577.91;5026141;28;19983;-76
2023/05/28 00:42:47;;;;;;;;;;;;;;;13.31;65.67;96574.16;5024746;28;19966;-79
2023/05/28 00:45:14;;;;;;;;;;;;;;;13.29;65.32;96578.03;5024248;28;20010;-79
2023/05/28 00:47:40;;;;;;;;;;;;;;;13.24;66.24;96581.31;5024319;28;19952;-78
2023/05/28 00:50:07;;;;;;;;;;;;;;;13.22;65.80;96574.69;5024092;28;19962;-78
2023/05/28 00:52:35;;;;;;;;;;;;;;;13.19;66.40;96581.22;5025552;28;19951;-79
2023/05/28 00:55:01;;;;;;;;;;;;;;;13.15;66.83;96586.16;5024229;28;19964;-79
2023/05/28 00:57:27;;;;;;;;;;;;;;;13.11;66.70;96587.63;5007772;28;19962;-80
2023/05/28 00:59:57;;;;;;;;;;;;;;;13.05;66.76;96582.50;5040680;28;19963;-80
2023/05/28 01:02:23;;;;;;;;;;;;;;;13.01;66.53;96584.78;5025268;28;19944;-80
2023/05/28 01:04:50;;;;;;;;;;;;;;;12.96;66.54;96574.94;5025310;28;19954;-79
2023/05/28 01:07:17;;;;;;;;;;;;;;;12.92;67.46;96586.16;5023859;28;19950;-79
2023/05/28 01:09:42;;;;;;;;;;;;;;;12.87;67.40;96581.59;5025262;28;19954;-80
2023/05/28 01:12:09;;;;;;;;;;;;;;;12.84;67.83;96583.88;5025003;28;19951;-79
2023/05/28 01:14:37;;;;;;;;;;;;;;;12.81;68.38;96582.50;5025035;28;19961;-80
2023/05/28 01:17:05;;;;;;;;;;;;;;;12.78;67.32;96575.84;5024924;28;19959;-74
2023/05/28 01:19:31;;;;;;;;;;;;;;;12.76;68.17;96580.53;5025118;28;19960;-80
2023/05/28 01:22:05;;;;;;;;;;;;;;;12.76;68.55;96574.47;5040330;28;19958;-79
2023/05/28 01:24:35;;;;;;;;;;;;;;;12.75;68.58;96576.31;5023753;28;19963;-79
2023/05/28 01:27:02;;;;;;;;;;;;;;;12.76;67.09;96569.22;5025083;28;19945;-80
2023/05/28 01:29:28;;;;;;;;;;;;;;;12.74;67.09;96569.44;5024843;28;20150;-80
2023/05/28 01:31:54;;;;;;;;;;;;;;;12.75;67.18;96578.94;5024890;28;20008;-80
2023/05/28 01:34:20;;;;;;;;;;;;;;;12.75;65.90;96563.16;5024734;28;19959;-75
2023/05/28 01:36:57;;;;;;;;;;;;;;;12.76;65.88;96564.75;5024136;28;20000;-74
2023/05/28 01:39:25;;;;;;;;;;;;;;;12.79;66.30;96569.56;5025259;28;20250;-73
2023/05/28 01:41:51;;;;;;;;;;;;;;;12.83;66.48;96569.91;5024357;28;19954;-73
2023/05/28 01:44:18;;;;;;;;;;;;;;;12.83;66.40;96563.84;5024922;28;19961;-73
2023/05/28 01:46:45;;;;;;;;;;;;;;;12.84;66.06;96565.44;5024743;28;20247;-75
2023/05/28 01:49:12;;;;;;;;;;;;;;;12.84;65.42;96560.97;5024799;28;19969;-73
2023/05/28 01:51:38;;;;;;;;;;;;;;;12.83;66.05;96563.84;5025006;28;19951;-81
2023/05/28 01:54:04;;;;;;;;;;;;;;;12.82;66.18;96563.03;5023813;28;19957;-78
2023/05/28 01:56:30;;;;;;;;;;;;;;;12.81;64.41;96553.56;5023767;28;19976;-77
2023/05/28 01:58:55;;;;;;;;;;;;;;;12.78;65.60;96554.78;5040025;28;20020;-77
2023/05/28 02:01:32;;;;;;;;;;;;;;;12.78;66.55;96551.38;5023029;28;19984;-77
2023/05/28 02:03:59;;;;;;;;;;;;;;;12.77;66.47;96555.84;5023234;28;19957;-76
2023/05/28 02:06:27;;;;;;;;;;;;;;;12.76;66.30;96551.59;5023058;28;19961;-77
2023/05/28 02:08:53;;;;;;;;;;;;;;;12.71;65.86;96550.69;5023089;28;19965;-77
2023/05/28 02:11:18;;;;;;;;;;;;;;;12.67;64.88;96544.28;5023157;28;19966;-77
2023/05/28 02:13:44;;;;;;;;;;;;;;;12.66;65.36;96546.13;5039719;28;19996;-78
2023/05/28 02:16:10;;;;;;;;;;;;;;;12.65;65.24;96544.50;5039679;28;20175;-79
2023/05/28 02:18:37;;;;;;;;;;;;;;;12.65;65.63;96541.09;5023170;28;19967;-79
2023/05/28 02:21:03;;;;;;;;;;;;;;;12.65;66.01;96531.34;5023816;28;19960;-79
2023/05/28 02:23:29;;;;;;;;;;;;;;;12.67;65.84;96534.56;5023144;28;19968;-78
2023/05/28 02:25:55;;;;;;;;;;;;;;;12.68;66.63;96536.16;5023033;28;19962;-79
2023/05/28 02:28:21;;;;;;;;;;;;;;;12.69;66.41;96531.69;5023319;28;19977;-80
2023/05/28 02:30:47;;;;;;;;;;;;;;;12.68;65.85;96536.16;5024095;28;19966;-76
2023/05/28 02:33:13;;;;;;;;;;;;;;;12.64;66.08;96521.88;5022702;28;19974;-71
2023/05/28 02:35:39;;;;;;;;;;;;;;;12.64;65.92;96528.94;5023224;28;19963;-71
2023/05/28 02:38:05;;;;;;;;;;;;;;;12.62;66.18;96531.00;5022799;28;19971;-71
2023/05/28 02:40:31;;;;;;;;;;;;;;;12.61;65.38;96527.56;5024274;28;19957;-70
2023/05/28 02:42:57;;;;;;;;;;;;;;;12.58;65.71;96531.47;5024217;28;19965;-71
2023/05/28 02:45:23;;;;;;;;;;;;;;;12.56;65.65;96525.63;5022928;28;19981;-70
2023/05/28 02:47:49;;;;;;;;;;;;;;;12.53;65.44;96530.53;5025633;28;20260;-72
2023/05/28 02:50:15;;;;;;;;;;;;;;;12.50;65.42;96533.63;5043097;28;19961;-71
2023/05/28 02:52:40;;;;;;;;;;;;;;;12.48;66.04;96533.84;5027111;28;20010;-71
2023/05/28 02:55:07;;;;;;;;;;;;;;;12.50;65.86;96533.63;5043238;28;19981;-71
2023/05/28 02:57:33;;;;;;;;;;;;;;;12.51;66.35;96532.59;5026664;28;19971;-71
2023/05/28 02:59:59;;;;;;;;;;;;;;;12.54;65.92;96532.16;5026616;28;19964;-71
2023/05/28 03:02:25;;;;;;;;;;;;;;;12.55;65.68;96533.75;5042614;28;20026;-70
2023/05/28 03:04:52;;;;;;;;;;;;;;;12.54;65.53;96535.59;5042958;28;20032;-71
2023/05/28 03:07:19;;;;;;;;;;;;;;;12.54;65.42;96538.22;5026520;28;20152;-80
2023/05/28 03:09:45;;;;;;;;;;;;;;;12.54;65.61;96545.31;5026371;28;19966;-76
2023/05/28 03:12:10;;;;;;;;;;;;;;;12.53;65.63;96538.44;5026231;28;20047;-77
2023/05/28 03:14:36;;;;;;;;;;;;;;;12.53;65.39;96548.94;5026082;28;19953;-76
2023/05/28 03:17:02;;;;;;;;;;;;;;;12.48;65.68;96540.97;5042631;28;19969;-76
2023/05/28 03:19:28;;;;;;;;;;;;;;;12.45;65.73;96554.53;5026031;28;19973;-76
2023/05/28 03:21:54;;;;;;;;;;;;;;;12.42;65.61;96552.38;5026848;28;19946;-76
2023/05/28 03:24:20;;;;;;;;;;;;;;;12.38;65.66;96559.91;5026400;28;20284;-78
2023/05/28 03:26:45;;;;;;;;;;;;;;;12.36;65.95;96562.75;5027358;28;19949;-76
2023/05/28 03:29:11;;;;;;;;;;;;;;;12.34;66.09;96562.19;5009877;28;20137;-73
2023/05/28 03:31:45;;;;;;;;;;;;;;;12.32;66.52;96564.25;5042516;28;19967;-73
2023/05/28 03:34:11;;;;;;;;;;;;;;;12.33;66.71;96572.94;5027066;28;19957;-73
2023/05/28 03:36:38;;;;;;;;;;;;;;;12.33;66.53;96565.06;5042060;28;19995;-73
2023/05/28 03:39:04;;;;;;;;;;;;;;;12.30;66.94;96563.66;5025563;28;19966;-73
2023/05/28 03:41:30;;;;;;;;;;;;;;;12.28;66.80;96564.91;5025731;28;19962;-73
2023/05/28 03:43:56;;;;;;;;;;;;;;;12.27;67.09;96573.84;5026962;28;19992;-76
2023/05/28 03:46:22;;;;;;;;;;;;;;;12.23;67.52;96560.34;5025570;28;19965;-73
2023/05/28 03:48:47;;;;;;;;;;;;;;;12.19;66.76;96569.72;5025405;28;19971;-74
2023/05/28 03:51:13;;;;;;;;;;;;;;;12.15;67.57;96563.28;5025987;28;19955;-73
2023/05/28 03:53:39;;;;;;;;;;;;;;;12.13;67.44;96568.75;5042372;28;20146;-73
2023/05/28 03:56:06;;;;;;;;;;;;;;;12.14;68.28;96575.66;5025056;28;19962;-73
2023/05/28 03:58:32;;;;;;;;;;;;;;;12.08;68.21;96581.78;5025254;28;20154;-72
2023/05/28 04:00:57;;;;;;;;;;;;;;;12.04;68.61;96582.47;5026028;28;19955;-73
2023/05/28 04:03:23;;;;;;;;;;;;;;;12.00;69.13;96579.47;5041615;28;20150;-75
2023/05/28 04:05:49;;;;;;;;;;;;;;;11.96;68.79;96580.94;5009063;28;20272;-76
2023/05/28 04:08:15;;;;;;;;;;;;;;;11.93;69.09;96587.47;5025223;28;20127;-75
2023/05/28 04:10:41;;;;;;;;;;;;;;;11.90;69.53;96581.84;5026354;28;19966;-75
2023/05/28 04:13:07;;;;;;;;;;;;;;;11.88;69.92;96586.47;5024922;28;19968;-75
2023/05/28 04:15:33;;;;;;;;;;;;;;;11.86;70.45;96585.91;5026438;28;19957;-75
2023/05/28 04:17:59;;;;;;;;;;;;;;;11.85;71.00;96586.94;5026213;28;19973;-76
2023/05/28 04:20:25;;;;;;;;;;;;;;;11.84;71.23;96591.38;5024711;28;19947;-77
2023/05/28 04:22:51;;;;;;;;;;;;;;;11.86;71.16;96586.69;5026477;28;19973;-73
2023/05/28 04:25:18;;;;;;;;;;;;;;;11.89;71.87;96591.56;5026232;28;20168;-73
2023/05/28 04:27:44;;;;;;;;;;;;;;;11.91;71.38;96586.88;5026422;28;19963;-73
2023/05/28 04:30:11;;;;;;;;;;;;;;;11.95;71.55;96584.63;5040959;28;20274;-73
2023/05/28 04:32:39;;;;;;;;;;;;;;;11.97;71.36;96582.56;5024727;28;20153;-73
2023/05/28 04:35:10;;;;;;;;;;;;;;;12.01;71.63;96594.25;5024441;28;19966;-73
2023/05/28 04:37:39;;;;;;;;;;;;;;;12.06;72.29;96589.09;5024696;28;20014;-72
2023/05/28 04:40:07;;;;;;;;;;;;;;;12.13;71.40;96587.16;5041231;28;19975;-73
2023/05/28 04:42:33;;;;;;;;;;;;;;;12.20;71.12;96597.63;5025982;28;19965;-79
2023/05/28 04:44:59;;;;;;;;;;;;;;;12.26;71.72;96596.69;5024320;28;19961;-78
2023/05/28 04:47:25;;;;;;;;;;;;;;;12.35;71.39;96594.56;5008115;28;19949;-78
2023/05/28 04:49:51;;;;;;;;;;;;;;;12.43;70.80;96594.25;5025411;28;19968;-79
2023/05/28 04:52:17;;;;;;;;;;;;;;;12.51;70.79;96591.25;5024675;28;20179;-78
2023/05/28 04:54:44;;;;;;;;;;;;;;;12.61;70.76;96590.72;5024668;28;19969;-79
2023/05/28 04:57:10;;;;;;;;;;;;;;;12.72;70.60;96589.13;5025686;28;20255;-79
2023/05/28 04:59:37;;;;;;;;;;;;;;;12.83;70.38;96582.25;5040964;28;19995;-76
2023/05/28 05:02:03;;;;;;;;;;;;;;;12.95;70.65;96585.69;5040509;28;20250;-76
2023/05/28 05:04:29;;;;;;;;;;;;;;;13.10;69.31;96585.22;5024788;28;19991;-75
2023/05/28 05:06:55;;;;;;;;;;;;;;;13.25;70.15;96582.94;5025296;28;19957;-76
2023/05/28 05:09:22;;;;;;;;;;;;;;;13.42;71.19;96590.97;5024047;28;19962;-75
2023/05/28 05:11:48;;;;;;;;;;;;;;;13.59;68.19;96573.38;5025215;28;19958;-76
2023/05/28 05:14:14;;;;;;;;;;;;;;;13.77;68.45;96566.34;5023896;28;20134;-76
2023/05/28 05:16:41;;;;;;;;;;;;;;;13.97;67.85;96571.19;5040214;28;19984;-78
2023/05/28 05:19:07;;;;;;;;;;;;;;;14.22;67.68;96565.56;5023963;28;20157;-70
2023/05/28 05:21:33;;;;;;;;;;;;;;;14.48;67.67;96571.28;5025254;28;20252;-71
2023/05/28 05:23:58;;;;;;;;;;;;;;;14.77;66.96;96562.25;5025382;28;19958;-71
2023/05/28 05:26:25;;;;;;;;;;;;;;;15.01;64.70;96543.56;5023921;28;19959;-71
2023/05/28 05:28:51;;;;;;;;;;;;;;;15.23;63.28;96538.31;5024808;28;19960;-71
2023/05/28 05:31:16;;;;;;;;;;;;;;;15.43;62.75;96538.59;5039985;28;20310;-71
2023/05/28 05:33:42;;;;;;;;;;;;;;;15.68;61.77;96537.25;5023592;28;20274;-78
2023/05/28 05:36:08;;;;;;;;;;;;;;;15.87;61.50;96537.75;5023528;28;20271;-77
2023/05/28 05:38:35;;;;;;;;;;;;;;;16.02;62.95;96550.31;5024836;28;19976;-76
2023/05/28 05:41:01;;;;;;;;;;;;;;;16.06;63.57;96556.72;5023610;28;19966;-76
2023/05/28 05:43:27;;;;;;;;;;;;;;;16.13;63.30;96544.09;5024949;28;20252;-76
2023/05/28 05:45:53;;;;;;;;;;;;;;;16.20;62.08;96542.03;5023905;28;20007;-76
2023/05/28 05:48:18;;;;;;;;;;;;;;;16.25;62.07;96543.91;5024949;28;20266;-76
2023/05/28 05:50:48;;;;;;;;;;;;;;;16.41;62.96;96553.59;5024870;28;19956;-71
2023/05/28 05:53:14;;;;;;;;;;;;;;;16.64;62.36;96549.81;5024585;28;19967;-77
2023/05/28 05:55:40;;;;;;;;;;;;;;;16.87;61.97;96545.22;5023747;28;20153;-78
2023/05/28 05:58:06;;;;;;;;;;;;;;;17.03;61.08;96541.63;5025204;28;20093;-78
2023/05/28 06:00:32;;;;;;;;;;;;;;;17.23;60.14;96535.63;5024513;28;19960;-78
2023/05/28 06:02:58;;;;;;;;;;;;;;;17.39;59.13;96530.41;5024744;28;19964;-78
2023/05/28 06:05:24;;;;;;;;;;;;;;;17.54;59.18;96525.16;5024586;28;19982;-78
2023/05/28 06:07:50;;;;;;;;;;;;;;;17.72;59.28;96526.50;5024560;28;19963;-79
2023/05/28 06:10:16;;;;;;;;;;;;;;;17.88;59.04;96529.25;5024212;28;19972;-77
2023/05/28 06:12:42;;;;;;;;;;;;;;;18.03;58.11;96529.28;5023287;28;19963;-77
2023/05/28 06:15:08;;;;;;;;;;;;;;;18.22;57.12;96529.56;5022943;28;19952;-77
2023/05/28 06:17:34;;;;;;;;;;;;;;;18.34;56.18;96526.66;5039684;28;19968;-76
2023/05/28 06:20:00;;;;;;;;;;;;;;;18.41;56.73;96529.81;5024509;28;20010;-77
2023/05/28 06:22:26;;;;;;;;;;;;;;;18.53;56.05;96532.22;5024332;28;19975;-77
2023/05/28 06:24:54;;;;;;;;;;;;;;;18.66;55.68;96526.38;5043435;28;20001;-77
2023/05/28 06:27:20;;;;;;;;;;;;;;;18.71;56.40;96544.97;5028510;28;19966;-76
2023/05/28 06:29:46;;;;;;;;;;;;;;;18.79;55.10;96536.50;5028187;28;19957;-78
2023/05/28 06:32:13;;;;;;;;;;;;;;;18.90;52.98;96531.13;5027008;28;20012;-71
2023/05/28 06:34:39;;;;;;;;;;;;;;;18.86;52.18;96536.22;5026916;28;19966;-71
2023/05/28 06:37:05;;;;;;;;;;;;;;;18.84;52.36;96522.41;5026627;28;19967;-71
2023/05/28 06:39:31;;;;;;;;;;;;;;;18.91;55.45;96549.47;5026494;28;19965;-71
2023/05/28 06:41:57;;;;;;;;;;;;;;;19.02;53.50;96531.63;5028133;28;20148;-71
2023/05/28 06:44:23;;;;;;;;;;;;;;;19.13;53.36;96529.75;5010352;28;20007;-71
2023/05/28 06:46:49;;;;;;;;;;;;;;;19.22;53.28;96533.47;5027136;28;19976;-77
2023/05/28 06:49:14;;;;;;;;;;;;;;;19.30;53.44;96529.44;5027950;28;20046;-73
2023/05/28 06:51:40;;;;;;;;;;;;;;;19.31;51.54;96531.03;5026631;28;19965;-81
2023/05/28 06:54:06;;;;;;;;;;;;;;;19.42;52.37;96530.75;5026777;28;19958;-83
2023/05/28 06:56:32;;;;;;;;;;;;;;;19.56;52.27;96527.47;5042871;28;19962;-82
2023/05/28 06:58:58;;;;;;;;;;;;;;;19.65;50.35;96528.50;5027571;28;19970;-82
2023/05/28 07:01:24;;;;;;;;;;;;;;;19.67;51.12;96534.31;5026000;28;19967;-83
2023/05/28 07:03:50;;;;;;;;;;;;;;;19.73;52.25;96537.81;5027573;28;19964;-83
2023/05/28 07:06:15;;;;;;;;;;;;;;;19.80;50.74;96532.97;5026363;28;20034;-80
2023/05/28 07:08:44;;;;;;;;;;;;;;;19.84;49.41;96528.69;5026257;28;19969;-78
2023/05/28 07:11:10;;;;;;;;;;;;;;;19.90;51.87;96538.22;5042758;28;19961;-77
2023/05/28 07:13:36;;;;;;;;;;;;;;;20.07;51.92;96540.53;5027517;28;19961;-77
2023/05/28 07:16:02;;;;;;;;;;;;;;;20.23;52.16;96542.00;5026186;28;19950;-77
2023/05/28 07:18:28;;;;;;;;;;;;;;;20.35;51.24;96536.34;5026448;28;20004;-77
2023/05/28 07:20:54;;;;;;;;;;;;;;;20.45;48.19;96524.78;5027048;28;20177;-77
2023/05/28 07:23:20;;;;;;;;;;;;;;;20.56;49.36;96530.88;5027253;28;19961;-81
2023/05/28 07:25:46;;;;;;;;;;;;;;;20.65;49.24;96535.31;5027360;28;19959;-74
2023/05/28 07:28:12;;;;;;;;;;;;;;;20.71;49.55;96541.41;5042227;28;20002;-72
2023/05/28 07:30:38;;;;;;;;;;;;;;;20.83;49.91;96554.34;5026693;28;19957;-72
2023/05/28 07:33:04;;;;;;;;;;;;;;;20.83;48.65;96547.16;5025588;28;19971;-72
2023/05/28 07:35:29;;;;;;;;;;;;;;;20.78;48.21;96543.75;5025807;28;19959;-72
2023/05/28 07:37:55;;;;;;;;;;;;;;;20.84;48.77;96547.94;5025706;28;19961;-72
2023/05/28 07:40:21;;;;;;;;;;;;;;;20.90;48.65;96543.38;5027123;28;19969;-72
2023/05/28 07:42:47;;;;;;;;;;;;;;;20.99;48.33;96542.47;5026976;28;19966;-77
2023/05/28 07:45:13;;;;;;;;;;;;;;;21.07;47.67;96538.38;5041846;28;19944;-76
2023/05/28 07:47:39;;;;;;;;;;;;;;;21.14;48.36;96546.03;5025924;28;19971;-76
2023/05/28 07:50:05;;;;;;;;;;;;;;;21.27;47.51;96537.34;5025853;28;20015;-77
2023/05/28 07:52:31;;;;;;;;;;;;;;;21.42;48.29;96541.78;5027028;28;19970;-77
2023/05/28 07:54:58;;;;;;;;;;;;;;;21.45;46.22;96541.97;5025472;28;19964;-77
2023/05/28 07:57:24;;;;;;;;;;;;;;;21.49;47.45;96539.56;5008780;28;19971;-77
2023/05/28 07:59:50;;;;;;;;;;;;;;;21.62;49.33;96549.50;5026417;28;20235;-78
2023/05/28 08:02:17;;;;;;;;;;;;;;;21.74;46.35;96537.66;5041814;28;19971;-74
2023/05/28 08:04:43;;;;;;;;;;;;;;;21.88;45.35;96536.66;5025349;28;20142;-80
2023/05/28 08:07:10;;;;;;;;;;;;;;;22.06;45.78;96534.25;5025083;28;19972;-79
2023/05/28 08:09:36;;;;;;;;;;;;;;;22.21;46.39;96546.59;5025125;28;19967;-80
2023/05/28 08:12:02;;;;;;;;;;;;;;;22.34;44.64;96537.06;5041489;28;20030;-79
2023/05/28 08:14:28;;;;;;;;;;;;;;;22.43;43.54;96535.34;5026597;28;20007;-79
2023/05/28 08:16:54;;;;;;;;;;;;;;;22.28;44.31;96534.50;5026334;28;19983;-80
2023/05/28 08:19:20;;;;;;;;;;;;;;;22.29;45.04;96533.41;5026693;28;20232;-79
2023/05/28 08:21:46;;;;;;;;;;;;;;;22.38;45.44;96538.06;5026476;28;19961;-78
2023/05/28 08:24:12;;;;;;;;;;;;;;;22.46;45.92;96529.41;5025036;28;19959;-78
2023/05/28 08:26:38;;;;;;;;;;;;;;;22.62;43.04;96529.94;5025945;28;20147;-78
2023/05/28 08:29:04;;;;;;;;;;;;;;;22.70;43.80;96526.63;5026064;28;19966;-79
2023/05/28 08:31:31;;;;;;;;;;;;;;;22.82;42.70;96521.56;5024712;28;20149;-78
2023/05/28 08:33:57;;;;;;;;;;;;;;;22.93;45.89;96524.88;5026117;28;19951;-78
2023/05/28 08:36:23;;;;;;;;;;;;;;;23.06;45.96;96520.66;5008031;28;19965;-74
2023/05/28 08:38:49;;;;;;;;;;;;;;;23.18;45.18;96523.63;5024502;28;19973;-74
2023/05/28 08:41:15;;;;;;;;;;;;;;;23.12;43.92;96516.78;5008251;28;20175;-81
2023/05/28 08:43:41;;;;;;;;;;;;;;;23.07;41.39;96509.63;5025342;28;20250;-82
2023/05/28 08:46:07;;;;;;;;;;;;;;;23.02;43.78;96516.97;5024538;28;20125;-82
2023/05/28 08:48:33;;;;;;;;;;;;;;;22.88;42.63;96512.34;5025642;28;19969;-82
2023/05/28 08:50:59;;;;;;;;;;;;;;;22.80;42.79;96512.25;5040587;28;19963;-82
2023/05/28 08:53:29;;;;;;;;;;;;;;;22.86;46.99;96509.19;5025530;28;19954;-83
2023/05/28 08:55:55;;;;;;;;;;;;;;;23.05;44.91;96508.34;5025510;28;19968;-74
2023/05/28 08:58:21;;;;;;;;;;;;;;;23.17;45.89;96505.19;5024349;28;19967;-74
2023/05/28 09:00:47;;;;;;;;;;;;;;;23.24;43.83;96498.34;5025410;28;19965;-75
2023/05/28 09:03:13;;;;;;;;;;;;;;;23.32;44.77;96496.06;5025585;28;19961;-75
2023/05/28 09:05:39;;;;;;;;;;;;;;;23.39;43.03;96504.47;5025507;28;19957;-76
2023/05/28 09:08:07;;;;;;;;;;;;;;;23.43;41.76;96497.44;5025552;28;19959;-77
2023/05/28 09:10:33;;;;;;;;;;;;;;;23.50;43.38;96498.63;5025380;28;19976;-77
2023/05/28 09:13:00;;;;;;;;;;;;;;;23.46;42.03;96500.31;5024818;28;19947;-76
2023/05/28 09:15:26;;;;;;;;;;;;;;;23.52;39.66;96495.66;5025607;28;19969;-71
2023/05/28 09:17:52;;;;;;;;;;;;;;;23.46;41.71;96494.19;5040693;28;20248;-73
2023/05/28 09:20:18;;;;;;;;;;;;;;;23.42;41.88;96499.31;5025413;28;19997;-71
2023/05/28 09:22:43;;;;;;;;;;;;;;;23.47;41.06;96495.75;5023684;28;20251;-73
2023/05/28 09:25:11;;;;;;;;;;;;;;;23.55;40.66;96489.69;5022957;28;20350;-71
2023/05/28 09:27:37;;;;;;;;;;;;;;;23.57;37.92;96487.50;5023945;28;20224;-72
2023/05/28 09:30:05;;;;;;;;;;;;;;;23.65;41.03;96492.16;5024860;28;19962;-71
2023/05/28 09:32:33;;;;;;;;;;;;;;;23.78;42.77;96492.47;5024829;28;19956;-71
2023/05/28 09:34:59;;;;;;;;;;;;;;;23.78;36.18;96485.22;5040070;28;19961;-71
2023/05/28 09:37:27;;;;;;;;;;;;;;;23.60;36.04;96486.91;5025007;28;20025;-73
2023/05/28 09:40:03;;;;;;;;;;;;;;;23.41;35.08;96489.69;5024795;28;19970;-71
2023/05/28 09:42:41;;;;;;;;;;;;;;;23.38;34.80;96484.16;5023964;28;19963;-72
2023/05/28 09:45:10;;;;;;;;;;;;;;;23.36;36.04;96491.72;5024683;28;19960;-71
2023/05/28 09:47:43;;;;;;;;;;;;;;;23.46;39.34;96494.19;5023727;28;19960;-71
2023/05/28 09:50:10;;;;;;;;;;;;;;;23.40;35.10;96487.34;5024667;28;20256;-77
2023/05/28 09:52:37;;;;;;;;;;;;;;;23.52;39.86;96492.97;5024821;28;19964;-74
2023/05/28 09:55:04;;;;;;;;;;;;;;;23.63;38.39;96496.22;5024622;28;19965;-75
2023/05/28 09:57:31;;;;;;;;;;;;;;;23.76;37.62;96486.56;5022677;28;19965;-77
2023/05/28 09:59:59;;;;;;;;;;;;;;;23.90;37.26;96490.84;5023314;28;19969;-76
2023/05/28 10:02:36;;;;;;;;;;;;;;;23.91;36.70;96481.69;5023350;28;19962;-76
2023/05/28 10:05:02;;;;;;;;;;;;;;;23.97;38.20;96492.31;5024522;28;20244;-76
2023/05/28 10:07:28;;;;;;;;;;;;;;;24.01;36.88;96487.91;5024790;28;19956;-76
2023/05/28 10:09:55;;;;;;;;;;;;;;;23.97;33.99;96486.94;5024578;28;20146;-70
2023/05/28 10:12:23;;;;;;;;;;;;;;;23.87;35.59;96487.97;5024698;28;19956;-75
2023/05/28 10:14:50;;;;;;;;;;;;;;;23.94;37.50;96482.19;5024452;28;19968;-74
2023/05/28 10:17:16;;;;;;;;;;;;;;;24.03;38.55;96488.41;5024340;28;19952;-74
2023/05/28 10:19:45;;;;;;;;;;;;;;;24.11;36.41;96490.38;5024331;28;19989;-74
2023/05/28 10:22:11;;;;;;;;;;;;;;;24.19;35.23;96486.97;5039651;28;19967;-74
2023/05/28 10:24:37;;;;;;;;;;;;;;;24.31;35.46;96495.22;5024506;28;19954;-74
2023/05/28 10:27:09;;;;;;;;;;;;;;;24.48;34.74;96491.06;5023835;28;19969;-79
2023/05/28 10:29:41;;;;;;;;;;;;;;;24.60;35.24;96491.34;5024481;28;19956;-70
2023/05/28 10:32:07;;;;;;;;;;;;;;;24.51;34.62;96493.97;5024418;28;20161;-72
2023/05/28 10:34:35;;;;;;;;;;;;;;;24.52;34.68;96482.13;5024054;28;19960;-72
2023/05/28 10:37:02;;;;;;;;;;;;;;;24.61;35.69;96490.25;5039462;28;20252;-71
2023/05/28 10:39:46;;;;;;;;;;;;;;;24.70;35.76;96480.34;5024416;28;19967;-71
2023/05/28 10:42:16;;;;;;;;;;;;;;;24.83;35.20;96484.03;5023065;28;19966;-72
2023/05/28 10:44:48;;;;;;;;;;;;;;;24.80;33.52;96483.84;5022979;28;20264;-71
2023/05/28 10:47:14;;;;;;;;;;;;;;;24.84;35.42;96485.63;5022692;28;19964;-75
2023/05/28 10:49:57;;;;;;;;;;;;;;;24.88;35.87;96493.84;5022876;28;19969;-74
2023/05/28 10:52:25;;;;;;;;;;;;;;;24.83;32.89;96486.72;5023280;28;20120;-75
2023/05/28 10:54:52;;;;;;;;;;;;;;;24.83;34.80;96489.41;5024067;28;19960;-75
2023/05/28 10:57:19;;;;;;;;;;;;;;;25.01;35.57;96484.09;5024171;28;20151;-75
2023/05/28 11:00:00;;;;;;;;;;;;;;;25.15;35.79;96474.03;5023900;28;19975;-75
2023/05/28 11:02:33;;;;;;;;;;;;;;;25.13;33.82;96478.94;5022932;28;20166;-75
2023/05/28 11:05:00;;;;;;;;;;;;;;;24.97;34.01;96483.94;5022886;28;19961;-75
2023/05/28 11:07:33;;;;;;;;;;;;;;;24.96;34.99;96484.25;5023691;28;20133;-72
2023/05/28 11:09:59;;;;;;;;;;;;;;;25.07;33.27;96483.66;5026553;28;19967;-71
2023/05/28 11:12:26;;;;;;;;;;;;;;;25.04;32.20;96478.91;5026666;28;19975;-73
2023/05/28 11:14:52;;;;;;;;;;;;;;;25.02;32.55;96486.47;5027305;28;19965;-71
2023/05/28 11:17:18;;;;;;;;;;;;;;;24.92;32.75;96479.50;5027112;28;19963;-72
2023/05/28 11:19:44;;;;;;;;;;;;;;;24.69;31.36;96475.28;5027595;28;20024;-71
2023/05/28 11:22:10;;;;;;;;;;;;;;;24.69;33.75;96473.41;5009461;28;19966;-75
2023/05/28 11:24:52;;;;;;;;;;;;;;;24.95;35.24;96475.41;5027411;28;19952;-72
2023/05/28 11:27:18;;;;;;;;;;;;;;;25.34;35.17;96470.34;5025848;28;19984;-76
2023/05/28 11:29:44;;;;;;;;;;;;;;;25.48;32.74;96463.75;5027228;28;20240;-77
2023/05/28 11:32:10;;;;;;;;;;;;;;;25.51;32.60;96470.38;5027153;28;20264;-77
2023/05/28 11:34:39;;;;;;;;;;;;;;;25.55;34.23;96465.16;5027156;28;19959;-76
2023/05/28 11:37:06;;;;;;;;;;;;;;;25.66;31.64;96455.69;5027346;28;19944;-77
2023/05/28 11:39:34;;;;;;;;;;;;;;;25.78;32.89;96463.13;5026654;28;19990;-77
2023/05/28 11:42:00;;;;;;;;;;;;;;;25.83;32.35;96457.59;5026645;28;20237;-75
2023/05/28 11:44:25;;;;;;;;;;;;;;;25.83;31.57;96449.53;5027086;28;19980;-78
2023/05/28 11:46:55;;;;;;;;;;;;;;;25.94;32.95;96456.22;5026944;28;19960;-76
2023/05/28 11:49:21;;;;;;;;;;;;;;;26.10;32.51;96451.94;5026617;28;19956;-76
2023/05/28 11:51:49;;;;;;;;;;;;;;;26.26;32.46;96454.13;5026665;28;19952;-77
2023/05/28 11:54:15;;;;;;;;;;;;;;;26.37;32.34;96449.97;5026663;28;19963;-77
2023/05/28 11:56:41;;;;;;;;;;;;;;;26.46;31.85;96458.06;5026210;28;19954;-76
2023/05/28 11:59:07;;;;;;;;;;;;;;;26.40;29.20;96451.25;5026616;28;20011;-76
2023/05/28 12:01:33;;;;;;;;;;;;;;;26.26;30.59;96446.06;5025331;28;19972;-71
2023/05/28 12:04:06;;;;;;;;;;;;;;;26.06;28.90;96453.69;5026448;28;20238;-71
2023/05/28 12:06:33;;;;;;;;;;;;;;;26.03;30.24;96448.94;5025083;28;19974;-71
2023/05/28 12:09:03;;;;;;;;;;;;;;;26.08;32.24;96450.66;5041368;28;20141;-71
2023/05/28 12:11:28;;;;;;;;;;;;;;;26.32;31.03;96450.16;5025726;28;19952;-70
2023/05/28 12:13:56;;;;;;;;;;;;;;;26.52;32.10;96444.09;5025741;28;19955;-71
2023/05/28 12:16:22;;;;;;;;;;;;;;;26.67;30.99;96442.03;5024663;28;20237;-70
2023/05/28 12:18:48;;;;;;;;;;;;;;;26.63;29.01;96433.03;5025790;28;19965;-75
2023/05/28 12:21:18;;;;;;;;;;;;;;;26.36;29.17;96445.72;5023439;28;20004;-75
2023/05/28 12:23:48;;;;;;;;;;;;;;;26.18;30.17;96441.50;5040963;28;19958;-75
2023/05/28 12:26:14;;;;;;;;;;;;;;;25.84;28.72;96443.06;5024432;28;19967;-74
2023/05/28 12:28:41;;;;;;;;;;;;;;;25.70;30.97;96449.41;5024333;28;19957;-75
2023/05/28 12:31:08;;;;;;;;;;;;;;;25.40;29.00;96436.88;5024300;28;19952;-75
2023/05/28 12:33:34;;;;;;;;;;;;;;;25.33;30.61;96439.25;5025030;28;19976;-75
2023/05/28 12:36:00;;;;;;;;;;;;;;;25.41;32.82;96439.25;5041326;28;19964;-81
2023/05/28 12:38:26;;;;;;;;;;;;;;;25.65;34.85;96441.47;5024814;28;19964;-70
2023/05/28 12:40:52;;;;;;;;;;;;;;;25.94;33.46;96442.78;5024294;28;20155;-72
2023/05/28 12:43:18;;;;;;;;;;;;;;;26.21;32.68;96438.19;5024680;28;20250;-72
2023/05/28 12:45:44;;;;;;;;;;;;;;;26.39;33.10;96428.94;5025684;28;19985;-72